Lumb, Argentina
Current Conditions -  °F | °C
As of 10:00 AM on Thursday 18 Dec 2014 (Local Time) from SAZM Reporting Station
Clear Clear  
Wind Chill: 75°   Ceiling: Unl
Heat Index: 75°   Visibility: 6mi
Dew Point: 45°   Wind: 15mph
Humidity: 34%   Direction: 340°NNW
Pressure: 29.83"   Gusts: NA
Location:  38.22°S, 59.32°W
Report Text: SAZM 181300Z 34013KT CAVOK 24/07 Q1010
Loading
Personal Weather Stations






























Interactive Weather Map New forecast layout! Learn more

10-Day Weather Forecast

Advertisements
Track Severe Weather on mobile